Westbrook, MN (56183)

10:06 AM CDT on August 26, 2016 (GMT -0500)
SGR | | Change Station

Elev 1430 ft 44.05 °N, 95.45 °W | Updated 34 seconds ago

Clear
Clear
68.2 °F
Feels Like 68.2 °F
N
1.7
Wind Variable Wind from ESE

Today
High -- | Low -- °F
--% Chance of Precip.
Yesterday
High -- | Low -- °F
Precip. -- in
Pressure 30.20 in
Visibility 10.0 miles
Clouds Clear
Dew Point 59 °F
Humidity 73%
Rainfall 0.00 in
Snow Depth Not available.
6:38 AM 8:07 PM
Waning Crescent, 34% visible
METAR KTKC 261453Z AUTO 15003KT 10SM CLR 18/14 A3020 RMK AO2 LTG DSNT SE T01750136
Pressure 30.20 in
Visibility 10.0 miles
Clouds Clear
Dew Point 59 °F
Humidity 73%
Rainfall 0.00 in
Snow Depth Not available.
6:38 AM 8:07 PM
Waning Crescent, 34% visible
METAR KTKC 261453Z AUTO 15003KT 10SM CLR 18/14 A3020 RMK AO2 LTG DSNT SE T01750136

10-Day Weather Forecast

Almanac

Astronomy

Aug. 26, 2016 Rise Set
Actual Time
Civil Twilight
Nautical Twilight
Astronomical Twilight
Moon
Length of Visible Light
Length of Day
Tomorrow will be .
, % of the Moon is Illuminated

Today's Extremes

State Highs State Lows

Community

WunderPhotos

Upload Photos

1,935,097 photos uploaded!

WunderBlog® & News

Nearby

Air Quality

  Air Quality AQ Index Pollutant
Not available.

Snow Depth

Station Depth Elevation

Earthquake Activity

City Distance Mag. Time & Date
Minimum magnitude displayed is 2.5.

Coastal Water Temperatures

Place Temperature

Stations

Nearby Weather Stations

Station Location Temp. Windchill Dew Point Humidity Wind Precip. Elev Updated Type
                   

Watches & Warnings

There are currently no watches in effect.